createdAt,value
2022-11-01T00:02:01.663Z,96617.22
2022-11-01T00:04:29.557Z,96606.75
2022-11-01T00:06:57.337Z,96605.38
2022-11-01T00:09:25.213Z,96593.13
2022-11-01T00:11:54.299Z,96598.16
2022-11-01T00:14:22.585Z,96596.28
2022-11-01T00:16:50.552Z,96588.25
2022-11-01T00:19:18.442Z,96589.63
2022-11-01T00:23:01.625Z,96592.41
2022-11-01T00:25:37.920Z,96553.47
2022-11-01T00:30:42.773Z,96586.22
2022-11-01T00:33:10.537Z,96585.44
2022-11-01T00:35:38.229Z,96599.09
2022-11-01T00:38:06.303Z,96590.31
2022-11-01T00:40:34.114Z,96587.06
2022-11-01T00:43:01.811Z,96583.22
2022-11-01T00:45:29.577Z,96588.94
2022-11-01T00:47:59.451Z,96590.56
2022-11-01T00:50:27.544Z,96600.72
2022-11-01T00:52:55.320Z,96607.09
2022-11-01T00:55:23.077Z,96604.44
2022-11-01T00:57:50.855Z,96618.84
2022-11-01T01:00:18.957Z,96610.81
2022-11-01T01:02:46.678Z,96610.47
2022-11-01T01:05:15.810Z,96610.09
2022-11-01T01:07:43.555Z,96619.16
2022-11-01T01:10:11.328Z,96622.31
2022-11-01T01:12:40.178Z,96616.97
2022-11-01T01:15:09.653Z,96622.19
2022-11-01T01:17:37.468Z,96622.97
2022-11-01T01:20:05.894Z,96621.25
2022-11-01T01:22:34.997Z,96614.88
2022-11-01T01:25:02.742Z,96563.41
2022-11-01T01:27:30.483Z,96607.50
2022-11-01T01:29:58.192Z,96603.53
2022-11-01T01:32:26.167Z,96604.00
2022-11-01T01:34:54.347Z,96610.31
2022-11-01T01:37:22.106Z,96596.38
2022-11-01T01:39:51.239Z,96593.13
2022-11-01T01:42:25.128Z,96600.66
2022-11-01T01:45:29.899Z,96601.09
2022-11-01T01:48:02.925Z,96586.97
2022-11-01T01:50:34.999Z,96597.19
2022-11-01T01:53:05.815Z,96596.84
2022-11-01T01:55:40.531Z,96594.31
2022-11-01T01:58:10.377Z,96597.19
2022-11-01T02:00:38.220Z,96591.97
2022-11-01T02:03:07.498Z,96598.25
2022-11-01T02:05:44.072Z,96592.56
2022-11-01T02:08:13.767Z,96594.88
2022-11-01T02:10:44.083Z,96598.03
2022-11-01T02:13:14.141Z,96598.38
2022-11-01T02:15:52.214Z,96610.13
2022-11-01T02:18:29.341Z,96612.31
2022-11-01T02:21:17.525Z,96613.38
2022-11-01T02:24:14.639Z,96613.16
2022-11-01T02:26:58.919Z,96624.19
2022-11-01T02:30:00.034Z,96636.06
2022-11-01T02:32:34.720Z,96637.25
2022-11-01T02:35:07.960Z,96640.72
2022-11-01T02:37:42.106Z,96647.25
2022-11-01T02:40:15.808Z,96651.56
2022-11-01T02:42:45.909Z,96641.69
2022-11-01T02:45:28.975Z,96649.38
2022-11-01T02:47:59.542Z,96648.88
2022-11-01T02:50:29.907Z,96638.69
2022-11-01T02:52:58.871Z,96645.19
2022-11-01T02:55:34.257Z,96636.97
2022-11-01T02:58:05.241Z,96637.31
2022-11-01T03:00:35.717Z,96631.97
2022-11-01T03:03:13.958Z,96634.06
2022-11-01T03:05:53.529Z,96644.53
2022-11-01T03:08:24.614Z,96658.97
2022-11-01T03:11:01.230Z,96650.34
2022-11-01T03:13:35.971Z,96675.69
2022-11-01T03:16:10.628Z,96689.88
2022-11-01T03:18:46.622Z,96703.03
2022-11-01T03:21:19.509Z,96701.28
2022-11-01T03:23:51.591Z,96707.69
2022-11-01T03:26:25.142Z,96715.03
2022-11-01T03:28:56.993Z,96713.75
2022-11-01T03:31:28.892Z,96711.22
2022-11-01T03:34:00.843Z,96712.38
2022-11-01T03:36:33.007Z,96719.16
2022-11-01T03:39:04.574Z,96720.53
2022-11-01T03:41:37.146Z,96717.44
2022-11-01T03:44:05.934Z,96730.91
2022-11-01T03:46:33.700Z,96727.22
2022-11-01T03:49:02.797Z,96725.94
2022-11-01T03:51:30.587Z,96721.72
2022-11-01T03:53:58.545Z,96721.28
2022-11-01T03:56:26.339Z,96717.31
2022-11-01T03:58:54.292Z,96720.81
2022-11-01T04:01:22.045Z,96722.81
2022-11-01T04:03:50.149Z,96727.94
2022-11-01T04:06:19.318Z,96726.06
2022-11-01T04:08:47.343Z,96728.72
2022-11-01T04:11:15.036Z,96729.78
2022-11-01T04:13:43.316Z,96742.72
2022-11-01T04:16:29.143Z,96740.84
2022-11-01T04:19:14.491Z,96736.50
2022-11-01T04:21:43.672Z,96746.66
2022-11-01T04:24:12.156Z,96758.84
2022-11-01T04:26:39.995Z,96764.13
2022-11-01T04:29:07.739Z,96766.56
2022-11-01T04:31:37.980Z,96768.53
2022-11-01T04:34:06.683Z,96775.06
2022-11-01T04:36:34.609Z,96778.69
2022-11-01T04:39:03.701Z,96782.88
2022-11-01T04:41:31.383Z,96777.69
2022-11-01T04:44:00.527Z,96778.50
2022-11-01T04:46:31.392Z,96774.22
2022-11-01T04:48:59.086Z,96776.91
2022-11-01T04:51:26.893Z,96762.34
2022-11-01T04:53:54.609Z,96772.81
2022-11-01T04:56:23.681Z,96766.06
2022-11-01T04:58:51.420Z,96769.09
2022-11-01T05:01:19.313Z,96765.13
2022-11-01T05:03:49.175Z,96765.38
2022-11-01T05:06:17.357Z,96733.16
2022-11-01T05:08:45.075Z,96745.06
2022-11-01T05:11:12.866Z,96694.97
2022-11-01T05:13:41.963Z,96749.94
2022-11-01T05:16:24.971Z,96749.91
2022-11-01T05:18:52.817Z,96749.75
2022-11-01T05:21:20.536Z,96743.88
2022-11-01T05:23:48.905Z,96748.69
2022-11-01T05:26:16.669Z,96756.75
2022-11-01T05:28:45.752Z,96760.47
2022-11-01T05:31:13.695Z,96764.75
2022-11-01T05:33:41.599Z,96756.41
2022-11-01T05:36:09.509Z,96776.97
2022-11-01T05:38:37.225Z,96791.81
2022-11-01T05:41:05.641Z,96797.00
2022-11-01T05:43:33.484Z,96806.69
2022-11-01T05:46:05.652Z,96805.06
2022-11-01T05:48:33.427Z,96809.16
2022-11-01T05:51:01.473Z,96801.56
2022-11-01T05:53:29.201Z,96812.22
2022-11-01T05:55:57.548Z,96812.09
2022-11-01T05:58:29.568Z,96812.81
2022-11-01T06:01:00.810Z,96815.19
2022-11-01T06:03:30.257Z,96827.00
2022-11-01T06:05:57.962Z,96831.97
2022-11-01T06:08:26.363Z,96818.84
2022-11-01T06:10:54.974Z,96833.91
2022-11-01T06:13:22.688Z,96833.75
2022-11-01T06:15:50.430Z,96830.09
2022-11-01T06:18:18.159Z,96834.81
2022-11-01T06:20:47.286Z,96827.22
2022-11-01T06:23:15.012Z,96843.84
2022-11-01T06:25:42.823Z,96848.38
2022-11-01T06:28:10.636Z,96843.38
2022-11-01T06:30:39.094Z,96842.63
2022-11-01T06:33:09.425Z,96852.13
2022-11-01T06:35:37.501Z,96865.44
2022-11-01T06:38:08.141Z,96871.22
2022-11-01T06:40:36.205Z,96868.97
2022-11-01T06:43:06.525Z,96878.66
2022-11-01T06:45:36.346Z,96884.34
2022-11-01T06:48:04.749Z,96883.88
2022-11-01T06:50:33.306Z,96888.41
2022-11-01T06:53:01.582Z,96882.53
2022-11-01T06:55:31.302Z,96884.09
2022-11-01T06:58:01.364Z,96887.19
2022-11-01T07:00:31.159Z,96887.28
2022-11-01T07:03:00.330Z,96894.94
2022-11-01T07:05:30.425Z,96874.56
2022-11-01T07:08:02.410Z,96898.50
2022-11-01T07:10:31.801Z,96892.78
2022-11-01T07:13:00.009Z,96886.28
2022-11-01T07:15:28.013Z,96891.00
2022-11-01T07:17:57.539Z,96887.13
2022-11-01T07:20:26.337Z,96870.97
2022-11-01T07:23:01.512Z,96881.72
2022-11-01T07:25:32.169Z,96885.66
2022-11-01T07:28:01.467Z,96888.56
2022-11-01T07:30:29.741Z,96891.41
2022-11-01T07:32:57.962Z,96889.59
2022-11-01T07:35:26.735Z,96900.28
2022-11-01T07:37:57.183Z,96903.63
2022-11-01T07:40:27.705Z,96907.72
2022-11-01T07:42:59.581Z,96911.38
2022-11-01T07:45:28.948Z,96916.25
2022-11-01T07:48:00.227Z,96915.34
2022-11-01T07:50:28.397Z,96909.66
2022-11-01T07:53:02.735Z,96914.22
2022-11-01T07:55:30.535Z,96915.50
2022-11-01T07:58:00.151Z,96914.41
2022-11-01T08:00:28.797Z,96907.88
2022-11-01T08:03:01.647Z,96901.09
2022-11-01T08:05:30.374Z,96896.75
2022-11-01T08:07:58.361Z,96903.03
2022-11-01T08:10:26.447Z,96886.75
2022-11-01T08:12:54.448Z,96891.16
2022-11-01T08:15:23.556Z,96890.81
2022-11-01T08:17:51.338Z,96888.97
2022-11-01T08:20:19.338Z,96889.94
2022-11-01T08:22:47.357Z,96890.72
2022-11-01T08:25:15.223Z,96893.31
2022-11-01T08:27:42.957Z,96893.41
2022-11-01T08:30:11.735Z,96906.16
2022-11-01T08:32:41.194Z,96906.47
2022-11-01T08:35:11.733Z,96904.03
2022-11-01T08:37:39.919Z,96896.75
2022-11-01T08:40:08.989Z,96893.16
2022-11-01T08:42:39.196Z,96904.88
2022-11-01T08:45:07.547Z,96916.16
2022-11-01T08:47:35.277Z,96910.00
2022-11-01T08:50:08.522Z,96909.00
2022-11-01T08:52:38.017Z,96907.88
2022-11-01T08:55:06.412Z,96909.94
2022-11-01T08:57:34.290Z,96912.03
2022-11-01T09:00:02.452Z,96916.16
2022-11-01T09:02:30.260Z,96921.25
2022-11-01T09:04:58.118Z,96910.84
2022-11-01T09:07:29.300Z,96917.31
2022-11-01T09:09:57.051Z,96910.72
2022-11-01T09:12:25.098Z,96912.25
2022-11-01T09:14:53.013Z,96916.00
2022-11-01T09:17:20.848Z,96919.34
2022-11-01T09:19:48.572Z,96919.44
2022-11-01T09:22:16.268Z,96922.78
2022-11-01T09:24:45.607Z,96922.97
2022-11-01T09:27:13.477Z,96932.44
2022-11-01T09:29:42.637Z,96930.56
2022-11-01T09:32:12.056Z,96934.59
2022-11-01T09:34:40.115Z,96933.47
2022-11-01T09:37:08.951Z,96933.97
2022-11-01T09:39:36.656Z,96930.94
2022-11-01T09:42:11.225Z,96935.00
2022-11-01T09:44:43.185Z,96931.44
2022-11-01T09:47:17.633Z,96932.81
2022-11-01T09:49:48.199Z,96934.84
2022-11-01T09:52:21.329Z,96923.88
2022-11-01T09:54:49.596Z,96933.84
2022-11-01T09:57:23.326Z,96935.44
2022-11-01T10:00:03.931Z,96932.28
2022-11-01T10:02:57.835Z,96938.28
2022-11-01T10:05:40.864Z,96942.41
2022-11-01T10:08:15.605Z,96941.22
2022-11-01T10:10:53.587Z,96939.50
2022-11-01T10:13:36.141Z,96942.16
2022-11-01T10:16:10.123Z,96948.19
2022-11-01T10:18:46.999Z,96953.25
2022-11-01T10:21:17.045Z,96962.25
2022-11-01T10:23:49.937Z,96955.72
2022-11-01T10:26:21.710Z,96961.72
2022-11-01T10:28:59.867Z,96956.50
2022-11-01T10:31:28.828Z,96962.16
2022-11-01T10:34:01.756Z,96967.84
2022-11-01T10:36:33.944Z,96951.16
2022-11-01T10:42:09.868Z,96969.31
2022-11-01T10:44:43.440Z,96966.31
2022-11-01T10:47:16.890Z,96961.72
2022-11-01T10:50:18.891Z,96956.50
2022-11-01T10:52:47.594Z,96948.19
2022-11-01T10:55:19.590Z,96957.13
2022-11-01T10:57:50.573Z,96958.56
2022-11-01T11:00:23.613Z,96952.75
2022-11-01T11:02:56.313Z,96952.22
2022-11-01T11:05:26.461Z,96942.81
2022-11-01T11:07:54.330Z,96940.28
2022-11-01T11:10:26.649Z,96943.31
2022-11-01T11:12:59.805Z,96934.34
2022-11-01T11:15:38.412Z,96937.84
2022-11-01T11:18:14.767Z,96933.22
2022-11-01T11:20:43.800Z,96933.91
2022-11-01T11:23:13.120Z,96932.78
2022-11-01T11:25:43.024Z,96938.81
2022-11-01T11:28:24.459Z,96929.63
2022-11-01T11:30:54.305Z,96941.31
2022-11-01T11:33:23.528Z,96949.84
2022-11-01T11:35:57.528Z,96942.56
2022-11-01T11:38:42.159Z,96937.72
2022-11-01T11:41:11.687Z,96941.13
2022-11-01T11:43:42.056Z,96936.50
2022-11-01T11:46:20.961Z,96930.00
2022-11-01T11:48:50.952Z,96934.44
2022-11-01T11:51:19.136Z,96929.31
2022-11-01T11:54:16.416Z,96926.78
2022-11-01T11:56:45.056Z,96928.75
2022-11-01T11:59:25.483Z,96924.44
2022-11-01T12:02:03.099Z,96924.38
2022-11-01T12:04:36.309Z,96923.03
2022-11-01T12:07:06.785Z,96923.38
2022-11-01T12:09:42.265Z,96925.00
2022-11-01T12:12:18.158Z,96921.97
2022-11-01T12:14:46.399Z,96925.31
2022-11-01T12:17:31.351Z,96914.50
2022-11-01T12:20:09.825Z,96919.16
2022-11-01T12:22:40.824Z,96926.34
2022-11-01T12:25:14.443Z,96920.16
2022-11-01T12:27:51.188Z,96920.03
2022-11-01T12:30:22.651Z,96932.47
2022-11-01T12:32:54.505Z,96928.50
2022-11-01T12:35:27.698Z,96922.53
2022-11-01T12:38:03.762Z,96926.00
2022-11-01T12:40:37.016Z,96916.47
2022-11-01T12:43:13.910Z,96906.88
2022-11-01T12:45:49.934Z,96909.34
2022-11-01T12:48:24.747Z,96911.50
2022-11-01T12:50:57.954Z,96907.69
2022-11-01T12:53:31.735Z,96901.22
2022-11-01T12:56:00.128Z,96905.91
2022-11-01T12:58:30.820Z,96904.75
2022-11-01T13:01:22.660Z,96907.50
2022-11-01T13:04:05.890Z,96913.88
2022-11-01T13:06:57.248Z,96903.94
2022-11-01T13:09:32.837Z,96911.69
2022-11-01T13:12:04.901Z,96906.75
2022-11-01T13:14:39.612Z,96911.06
2022-11-01T13:17:17.109Z,96912.22
2022-11-01T13:19:53.592Z,96903.94
2022-11-01T13:22:27.385Z,96887.38
2022-11-01T13:25:03.582Z,96900.09
2022-11-01T13:27:37.320Z,96893.34
2022-11-01T13:30:07.127Z,96890.06
2022-11-01T13:32:39.441Z,96890.06
2022-11-01T13:35:32.945Z,96904.59
2022-11-01T13:38:13.038Z,96882.97
2022-11-01T13:40:46.576Z,96902.09
2022-11-01T13:43:17.799Z,96900.78
2022-11-01T13:46:13.323Z,96886.69
2022-11-01T13:49:14.459Z,96898.06
2022-11-01T13:51:50.023Z,96901.91
2022-11-01T13:54:25.810Z,96896.00
2022-11-01T13:56:58.459Z,96891.41
2022-11-01T13:59:34.434Z,96896.53
2022-11-01T14:02:46.970Z,96892.66
2022-11-01T14:05:16.308Z,96888.63
2022-11-01T14:08:14.946Z,96885.63
2022-11-01T14:10:50.930Z,96889.44
2022-11-01T14:13:31.231Z,96897.34
2022-11-01T14:16:25.845Z,96902.09
2022-11-01T14:19:20.536Z,96904.94
2022-11-01T14:21:53.039Z,96901.53
2022-11-01T14:24:34.558Z,96898.28
2022-11-01T14:27:22.757Z,96889.56
2022-11-01T14:29:52.278Z,96892.47
2022-11-01T14:32:23.310Z,96900.84
2022-11-01T14:35:01.911Z,96900.50
2022-11-01T14:37:37.412Z,96896.66
2022-11-01T14:40:21.758Z,96892.59
2022-11-01T14:42:51.976Z,96902.53
2022-11-01T14:45:32.353Z,96896.22
2022-11-01T14:48:07.061Z,96903.31
2022-11-01T14:50:43.481Z,96899.38
2022-11-01T14:53:23.636Z,96902.13
2022-11-01T14:56:07.330Z,96901.13
2022-11-01T14:58:35.120Z,96897.34
2022-11-01T15:01:07.195Z,96900.63
2022-11-01T15:03:35.344Z,96901.66
2022-11-01T15:06:03.219Z,96897.88
2022-11-01T15:08:37.485Z,96910.88
2022-11-01T15:11:08.457Z,96905.47
2022-11-01T15:13:39.341Z,96903.88
2022-11-01T15:16:15.167Z,96909.19
2022-11-01T15:18:49.519Z,96907.50
2022-11-01T15:21:24.331Z,96908.53
2022-11-01T15:23:57.179Z,96909.06
2022-11-01T15:26:28.888Z,96911.75
2022-11-01T15:29:00.039Z,96900.56
2022-11-01T15:31:28.536Z,96919.59
2022-11-01T15:33:59.018Z,96914.47
2022-11-01T15:36:32.804Z,96913.91
2022-11-01T15:39:02.514Z,96918.63
2022-11-01T15:41:33.264Z,96911.16
2022-11-01T15:44:02.587Z,96921.22
2022-11-01T15:46:33.991Z,96916.16
2022-11-01T15:49:07.234Z,96928.16
2022-11-01T15:51:39.837Z,96894.25
2022-11-01T15:54:19.084Z,96914.22
2022-11-01T15:56:53.949Z,96927.75
2022-11-01T15:59:26.662Z,96928.97
2022-11-01T16:01:57.534Z,96928.66
2022-11-01T16:04:29.116Z,96920.31
2022-11-01T16:07:00.962Z,96918.06
2022-11-01T16:09:39.639Z,96921.19
2022-11-01T16:12:17.684Z,96931.50
2022-11-01T16:14:52.137Z,96923.63
2022-11-01T16:17:26.025Z,96934.34
2022-11-01T16:19:54.060Z,96928.88
2022-11-01T16:22:33.391Z,96933.19
2022-11-01T16:25:13.243Z,96930.91
2022-11-01T16:27:54.754Z,96933.81
2022-11-01T16:30:46.099Z,96947.75
2022-11-01T16:33:22.861Z,96945.50
2022-11-01T16:35:51.961Z,96939.81
2022-11-01T16:38:44.827Z,96957.50
2022-11-01T16:41:20.212Z,96960.84
2022-11-01T16:43:53.047Z,96964.13
2022-11-01T16:46:22.071Z,96967.63
2022-11-01T16:48:53.034Z,96976.75
2022-11-01T16:51:22.018Z,96969.91
2022-11-01T16:53:50.590Z,96993.72
2022-11-01T16:56:36.231Z,96995.25
2022-11-01T16:59:17.008Z,96995.81
2022-11-01T17:01:47.064Z,96999.91
2022-11-01T17:04:15.633Z,97002.69
2022-11-01T17:06:43.382Z,97015.31
2022-11-01T17:09:13.979Z,97014.13
2022-11-01T17:11:46.347Z,97013.53
2022-11-01T17:14:17.441Z,97016.34
2022-11-01T17:16:47.783Z,97030.25
2022-11-01T17:19:22.261Z,97024.06
2022-11-01T17:21:51.948Z,97034.41
2022-11-01T17:24:22.296Z,97032.78
2022-11-01T17:26:51.879Z,97047.28
2022-11-01T17:29:21.006Z,97041.44
2022-11-01T17:31:49.412Z,97041.16
2022-11-01T17:34:17.537Z,97047.13
2022-11-01T17:36:48.365Z,97045.50
2022-11-01T17:39:16.098Z,97043.03
2022-11-01T17:41:44.241Z,97039.44
2022-11-01T17:44:12.438Z,97052.22
2022-11-01T17:46:42.774Z,97052.22
2022-11-01T17:49:14.395Z,97051.56
2022-11-01T17:51:42.376Z,97049.59
2022-11-01T17:54:10.811Z,97056.59
2022-11-01T17:56:38.881Z,97045.19
2022-11-01T17:59:06.654Z,97058.16
2022-11-01T18:01:34.522Z,97057.56
2022-11-01T18:04:04.110Z,97055.38
2022-11-01T18:06:32.531Z,97052.69
2022-11-01T18:09:00.265Z,97051.19
2022-11-01T18:11:40.574Z,97047.09
2022-11-01T18:14:16.005Z,97063.69
2022-11-01T18:17:00.000Z,97055.31
2022-11-01T18:19:49.105Z,97046.13
2022-11-01T18:22:26.707Z,97040.31
2022-11-01T18:25:00.040Z,97055.28
2022-11-01T18:27:35.235Z,97058.56
2022-11-01T18:30:08.552Z,97057.41
2022-11-01T18:32:44.880Z,97060.53
2022-11-01T18:35:23.999Z,97063.69
2022-11-01T18:38:14.438Z,97055.06
2022-11-01T18:40:52.023Z,97057.50
2022-11-01T18:43:21.919Z,97068.13
2022-11-01T18:46:11.572Z,97054.81
2022-11-01T18:48:37.871Z,97058.69
2022-11-01T18:51:13.926Z,97061.47
2022-11-01T18:53:41.681Z,97061.13
2022-11-01T18:56:21.133Z,97060.03
2022-11-01T18:58:50.301Z,97063.75
2022-11-01T19:01:20.493Z,97061.91
2022-11-01T19:03:55.841Z,97064.00
2022-11-01T19:06:27.101Z,97042.84
2022-11-01T19:08:57.138Z,97071.94
2022-11-01T19:11:27.241Z,97067.75
2022-11-01T19:13:58.233Z,97070.06
2022-11-01T19:16:26.081Z,97068.44
2022-11-01T19:18:53.820Z,97063.41
2022-11-01T19:21:23.726Z,97057.59
2022-11-01T19:23:55.102Z,97052.63
2022-11-01T19:26:26.710Z,97051.00
2022-11-01T19:28:54.882Z,97050.16
2022-11-01T19:31:27.791Z,97055.72
2022-11-01T19:33:58.418Z,97054.66
2022-11-01T19:36:33.742Z,97058.50
2022-11-01T19:39:11.426Z,97062.53
2022-11-01T19:41:39.144Z,97056.69
2022-11-01T19:44:15.416Z,97054.66
2022-11-01T19:46:43.194Z,97058.56
2022-11-01T19:49:22.240Z,97060.31
2022-11-01T19:52:02.301Z,97052.03
2022-11-01T19:54:36.088Z,97062.88
2022-11-01T19:57:10.975Z,97064.06
2022-11-01T19:59:38.747Z,97056.69
2022-11-01T20:02:17.229Z,97054.25
2022-11-01T20:04:45.394Z,97058.09
2022-11-01T20:07:16.719Z,97056.69
2022-11-01T20:09:45.956Z,97057.28
2022-11-01T20:12:18.632Z,97052.47
2022-11-01T20:14:49.314Z,97057.97
2022-11-01T20:17:17.061Z,97051.41
2022-11-01T20:19:45.200Z,97055.16
2022-11-01T20:22:13.053Z,97063.66
2022-11-01T20:24:40.775Z,97063.91
2022-11-01T20:27:09.935Z,97068.34
2022-11-01T20:29:37.724Z,97068.81
2022-11-01T20:32:05.813Z,97064.28
2022-11-01T20:34:33.887Z,97072.13
2022-11-01T20:37:26.876Z,97066.41
2022-11-01T20:39:49.749Z,97068.03
2022-11-01T20:42:19.319Z,97063.69
2022-11-01T20:44:47.103Z,97067.09
2022-11-01T20:47:14.799Z,97075.34
2022-11-01T20:49:42.686Z,97075.00
2022-11-01T20:54:58.134Z,97078.13
2022-11-01T20:57:28.309Z,97075.66
2022-11-01T20:59:56.476Z,97067.75
2022-11-01T21:02:24.511Z,97075.78
2022-11-01T21:04:57.937Z,97073.81
2022-11-01T21:07:26.512Z,97077.19
2022-11-01T21:09:54.732Z,97080.34
2022-11-01T21:12:33.772Z,97078.34
2022-11-01T21:15:05.828Z,97077.78
2022-11-01T21:17:33.538Z,97077.16
2022-11-01T21:20:01.565Z,97066.97
2022-11-01T21:22:30.404Z,97077.78
2022-11-01T21:24:59.512Z,97077.41
2022-11-01T21:27:31.599Z,97077.91
2022-11-01T21:30:04.093Z,97081.03
2022-11-01T21:32:42.586Z,97083.13
2022-11-01T21:35:38.397Z,97080.19
2022-11-01T21:38:27.951Z,97089.16
2022-11-01T21:40:55.877Z,97092.66
2022-11-01T21:43:31.728Z,97091.63
2022-11-01T21:45:59.635Z,97091.19
2022-11-01T21:48:29.938Z,97096.53
2022-11-01T21:50:57.915Z,97092.34
2022-11-01T21:53:25.706Z,97094.63
2022-11-01T21:55:53.457Z,97102.13
2022-11-01T21:58:21.914Z,97102.03
2022-11-01T22:00:51.034Z,97104.56
2022-11-01T22:03:18.738Z,97095.88
2022-11-01T22:05:46.468Z,97105.69
2022-11-01T22:08:14.248Z,97106.75
2022-11-01T22:10:42.384Z,97101.97
2022-11-01T22:13:10.444Z,97098.41
2022-11-01T22:15:38.310Z,97097.59
2022-11-01T22:18:07.513Z,97101.91
2022-11-01T22:20:35.270Z,97107.44
2022-11-01T22:23:03.200Z,97099.59
2022-11-01T22:25:31.155Z,97113.31
2022-11-01T22:27:58.873Z,97108.16
2022-11-01T22:30:27.036Z,97109.41
2022-11-01T22:32:54.768Z,97121.72
2022-11-01T22:35:24.242Z,97124.03
2022-11-01T22:37:51.985Z,97119.25
2022-11-01T22:40:20.323Z,97126.03
2022-11-01T22:42:48.933Z,97119.84
2022-11-01T22:45:17.849Z,97125.44
2022-11-01T22:47:47.019Z,97122.63
2022-11-01T22:50:26.219Z,97122.22
2022-11-01T22:52:55.369Z,97129.63
2022-11-01T22:55:26.391Z,97132.53
2022-11-01T22:57:58.671Z,97131.78
2022-11-01T23:00:30.106Z,97131.25
2022-11-01T23:03:02.054Z,97131.56
2022-11-01T23:05:30.092Z,97140.00
2022-11-01T23:08:08.674Z,97137.47
2022-11-01T23:10:36.493Z,97141.59
2022-11-01T23:13:42.588Z,97144.53
2022-11-01T23:16:32.354Z,97146.03
2022-11-01T23:19:03.453Z,97152.84
2022-11-01T23:21:31.282Z,97153.50
2022-11-01T23:24:01.783Z,97157.44
2022-11-01T23:26:31.927Z,97169.59
2022-11-01T23:29:00.535Z,97170.66
2022-11-01T23:31:29.823Z,97174.97
2022-11-01T23:33:57.626Z,97171.81
2022-11-01T23:36:28.764Z,97187.63
2022-11-01T23:41:32.171Z,97177.66
2022-11-01T23:44:02.247Z,97170.88
2022-11-01T23:46:30.569Z,97176.41
2022-11-01T23:49:03.339Z,97175.34
2022-11-01T23:51:32.151Z,97175.34
2022-11-01T23:54:00.182Z,97179.66
2022-11-01T23:56:29.615Z,97180.72
2022-11-01T23:59:01.914Z,97193.03
